createdAt,value
2023-07-18T00:02:09.138Z,16.34
2023-07-18T00:04:37.428Z,16.31
2023-07-18T00:07:05.493Z,16.31
2023-07-18T00:09:32.878Z,16.30
2023-07-18T00:12:00.662Z,16.28
2023-07-18T00:14:30.844Z,16.28
2023-07-18T00:16:59.389Z,16.25
2023-07-18T00:19:26.061Z,16.23
2023-07-18T00:21:54.467Z,16.20
2023-07-18T00:24:21.238Z,16.17
2023-07-18T00:26:47.942Z,16.16
2023-07-18T00:29:14.705Z,16.17
2023-07-18T00:31:42.340Z,16.14
2023-07-18T00:34:09.124Z,16.14
2023-07-18T00:36:35.814Z,16.12
2023-07-18T00:39:04.806Z,16.11
2023-07-18T00:41:31.710Z,16.09
2023-07-18T00:43:58.484Z,16.06
2023-07-18T00:46:25.728Z,16.04
2023-07-18T00:48:52.885Z,16.00
2023-07-18T00:51:20.291Z,15.97
2023-07-18T00:53:47.332Z,15.96
2023-07-18T00:56:15.437Z,15.94
2023-07-18T00:58:42.324Z,15.91
2023-07-18T01:01:09.274Z,15.89
2023-07-18T01:03:38.895Z,15.85
2023-07-18T01:06:06.931Z,15.79
2023-07-18T01:08:33.977Z,15.76
2023-07-18T01:11:00.855Z,15.73
2023-07-18T01:13:28.889Z,15.72
2023-07-18T01:15:55.689Z,15.70
2023-07-18T01:18:22.395Z,15.69
2023-07-18T01:20:50.159Z,15.66
2023-07-18T01:23:18.362Z,15.63
2023-07-18T01:25:45.316Z,15.60
2023-07-18T01:28:12.226Z,15.57
2023-07-18T01:30:39.273Z,15.56
2023-07-18T01:33:06.183Z,15.54
2023-07-18T01:35:33.463Z,15.52
2023-07-18T01:38:01.855Z,15.51
2023-07-18T01:40:29.992Z,15.46
2023-07-18T01:42:58.667Z,15.44
2023-07-18T01:45:29.057Z,15.41
2023-07-18T01:47:57.683Z,15.41
2023-07-18T01:50:25.007Z,15.39
2023-07-18T01:52:51.861Z,15.36
2023-07-18T01:55:18.640Z,15.32
2023-07-18T01:57:48.647Z,15.28
2023-07-18T02:00:23.208Z,15.25
2023-07-18T02:02:52.613Z,15.24
2023-07-18T02:05:22.218Z,15.22
2023-07-18T02:07:49.332Z,15.21
2023-07-18T02:10:17.560Z,15.20
2023-07-18T02:12:46.829Z,15.19
2023-07-18T02:15:16.495Z,15.18
2023-07-18T02:17:44.356Z,15.16
2023-07-18T02:20:13.209Z,15.14
2023-07-18T02:22:41.798Z,15.14
2023-07-18T02:25:10.038Z,15.13
2023-07-18T02:27:40.154Z,15.12
2023-07-18T02:30:10.839Z,15.11
2023-07-18T02:32:37.959Z,15.10
2023-07-18T02:35:05.401Z,15.10
2023-07-18T02:37:32.215Z,15.07
2023-07-18T02:39:58.904Z,15.05
2023-07-18T02:42:25.770Z,15.03
2023-07-18T02:44:52.629Z,15.04
2023-07-18T02:47:20.896Z,15.02
2023-07-18T02:49:47.648Z,15.00
2023-07-18T02:52:14.322Z,14.99
2023-07-18T02:54:41.428Z,14.99
2023-07-18T02:57:08.252Z,14.97
2023-07-18T02:59:35.013Z,14.96
2023-07-18T03:02:02.319Z,14.96
2023-07-18T03:04:32.020Z,14.94
2023-07-18T03:07:01.473Z,14.91
2023-07-18T03:09:28.521Z,14.91
2023-07-18T03:11:55.454Z,14.88
2023-07-18T03:14:22.757Z,14.86
2023-07-18T03:16:50.027Z,14.85
2023-07-18T03:19:16.831Z,14.85
2023-07-18T03:21:45.876Z,14.86
2023-07-18T03:24:12.856Z,14.85
2023-07-18T03:26:43.688Z,14.85
2023-07-18T03:29:10.786Z,14.82
2023-07-18T03:31:37.574Z,14.79
2023-07-18T03:34:06.315Z,14.76
2023-07-18T03:36:33.433Z,14.74
2023-07-18T03:39:01.761Z,14.71
2023-07-18T03:41:28.653Z,14.71
2023-07-18T03:43:56.148Z,14.72
2023-07-18T03:46:23.071Z,14.71
2023-07-18T03:48:49.966Z,14.69
2023-07-18T03:51:17.635Z,14.69
2023-07-18T03:53:45.988Z,14.69
2023-07-18T03:56:14.789Z,14.67
2023-07-18T03:58:41.790Z,14.66
2023-07-18T04:01:09.461Z,14.63
2023-07-18T04:03:36.245Z,14.64
2023-07-18T04:06:03.400Z,14.63
2023-07-18T04:08:33.897Z,14.61
2023-07-18T04:11:01.431Z,14.61
2023-07-18T04:13:29.578Z,14.61
2023-07-18T04:15:57.076Z,14.60
2023-07-18T04:18:23.996Z,14.60
2023-07-18T04:20:59.842Z,14.58
2023-07-18T04:23:26.598Z,14.58
2023-07-18T04:25:58.451Z,14.57
2023-07-18T04:28:26.659Z,14.58
2023-07-18T04:30:55.201Z,14.60
2023-07-18T04:33:22.229Z,14.60
2023-07-18T04:35:49.115Z,14.61
2023-07-18T04:38:16.073Z,14.60
2023-07-18T04:40:43.117Z,14.62
2023-07-18T04:43:10.451Z,14.64
2023-07-18T04:45:42.459Z,14.65
2023-07-18T04:48:11.674Z,14.66
2023-07-18T04:50:38.652Z,14.67
2023-07-18T04:53:06.954Z,14.68
2023-07-18T04:55:35.712Z,14.69
2023-07-18T04:58:03.183Z,14.72
2023-07-18T05:00:30.298Z,14.76
2023-07-18T05:02:57.903Z,14.77
2023-07-18T05:05:26.925Z,14.81
2023-07-18T05:07:54.103Z,14.84
2023-07-18T05:10:21.867Z,14.89
2023-07-18T05:12:48.617Z,14.92
2023-07-18T05:15:15.528Z,14.97
2023-07-18T05:17:42.387Z,15.01
2023-07-18T05:20:13.039Z,15.05
2023-07-18T05:22:43.066Z,15.09
2023-07-18T05:25:11.681Z,15.12
2023-07-18T05:27:40.147Z,15.16
2023-07-18T05:30:11.689Z,15.18
2023-07-18T05:32:40.251Z,15.24
2023-07-18T05:35:08.173Z,15.28
2023-07-18T05:37:35.673Z,15.33
2023-07-18T05:40:04.804Z,15.37
2023-07-18T05:42:32.064Z,15.39
2023-07-18T05:44:59.186Z,15.42
2023-07-18T05:47:26.069Z,15.46
2023-07-18T05:49:52.804Z,15.48
2023-07-18T05:52:19.615Z,15.51
2023-07-18T05:54:46.480Z,15.54
2023-07-18T05:57:17.051Z,15.57
2023-07-18T05:59:43.829Z,15.62
2023-07-18T06:02:10.593Z,15.64
2023-07-18T06:04:38.077Z,15.69
2023-07-18T06:07:05.551Z,15.71
2023-07-18T06:09:32.634Z,15.74
2023-07-18T06:12:00.048Z,15.79
2023-07-18T06:14:29.334Z,15.82
2023-07-18T06:16:56.126Z,15.85
2023-07-18T06:19:23.061Z,15.88
2023-07-18T06:21:49.755Z,15.91
2023-07-18T06:24:19.314Z,15.96
2023-07-18T06:26:51.429Z,15.99
2023-07-18T06:29:18.636Z,16.02
2023-07-18T06:31:47.284Z,16.05
2023-07-18T06:34:14.250Z,16.10
2023-07-18T06:36:40.983Z,16.15
2023-07-18T06:39:08.015Z,16.18
2023-07-18T06:41:35.209Z,16.23
2023-07-18T06:44:02.203Z,16.26
2023-07-18T06:46:29.185Z,16.31
2023-07-18T06:48:57.396Z,16.36
2023-07-18T06:51:24.522Z,16.42
2023-07-18T06:53:53.355Z,16.45
2023-07-18T06:56:20.499Z,16.50
2023-07-18T06:58:47.493Z,16.55
2023-07-18T07:01:15.779Z,16.59
2023-07-18T07:03:42.706Z,16.63
2023-07-18T07:06:12.112Z,16.67
2023-07-18T07:08:38.864Z,16.71
2023-07-18T07:11:07.219Z,16.76
2023-07-18T07:13:35.858Z,16.80
2023-07-18T07:16:02.642Z,16.84
2023-07-18T07:18:29.507Z,16.87
2023-07-18T07:20:56.229Z,16.94
2023-07-18T07:23:25.000Z,16.98
2023-07-18T07:25:52.677Z,17.02
2023-07-18T07:28:20.621Z,17.08
2023-07-18T07:30:47.794Z,17.13
2023-07-18T07:33:14.551Z,17.18
2023-07-18T07:35:41.334Z,17.21
2023-07-18T07:38:11.504Z,17.27
2023-07-18T07:40:39.706Z,17.30
2023-07-18T07:43:06.436Z,17.34
2023-07-18T07:45:33.260Z,17.39
2023-07-18T07:48:00.131Z,17.46
2023-07-18T07:50:28.565Z,17.51
2023-07-18T07:52:55.303Z,17.54
2023-07-18T07:55:22.130Z,17.58
2023-07-18T07:57:50.393Z,17.64
2023-07-18T08:00:18.067Z,17.68
2023-07-18T08:02:50.938Z,17.72
2023-07-18T08:05:19.486Z,17.77
2023-07-18T08:07:46.658Z,17.81
2023-07-18T08:10:14.141Z,17.85
2023-07-18T08:12:41.240Z,17.90
2023-07-18T08:15:10.736Z,17.96
2023-07-18T08:17:37.802Z,18.00
2023-07-18T08:20:07.586Z,18.04
2023-07-18T08:22:35.102Z,18.09
2023-07-18T08:25:02.237Z,18.15
2023-07-18T08:27:28.942Z,18.20
2023-07-18T08:29:56.462Z,18.24
2023-07-18T08:32:29.765Z,18.29
2023-07-18T08:34:56.851Z,18.33
2023-07-18T08:37:23.645Z,18.42
2023-07-18T08:39:50.367Z,18.49
2023-07-18T08:42:20.666Z,18.58
2023-07-18T08:44:50.559Z,18.64
2023-07-18T08:47:18.371Z,18.69
2023-07-18T08:49:48.206Z,18.72
2023-07-18T08:52:16.223Z,18.74
2023-07-18T08:54:43.129Z,18.81
2023-07-18T08:57:10.341Z,18.86
2023-07-18T08:59:39.927Z,18.91
2023-07-18T09:02:06.972Z,18.97
2023-07-18T09:04:34.517Z,19.01
2023-07-18T09:07:03.998Z,19.05
2023-07-18T09:09:31.021Z,19.09
2023-07-18T09:12:03.658Z,19.14
2023-07-18T09:14:33.273Z,19.17
2023-07-18T09:17:01.656Z,19.23
2023-07-18T09:19:40.086Z,19.27
2023-07-18T09:22:12.627Z,19.32
2023-07-18T09:24:40.808Z,19.37
2023-07-18T09:27:09.341Z,19.42
2023-07-18T09:29:36.509Z,19.48
2023-07-18T09:32:03.634Z,19.53
2023-07-18T09:34:30.607Z,19.57
2023-07-18T09:37:00.696Z,19.66
2023-07-18T09:39:30.439Z,19.72
2023-07-18T09:41:57.788Z,19.78
2023-07-18T09:44:33.239Z,19.83
2023-07-18T09:47:01.901Z,19.88
2023-07-18T09:52:02.711Z,19.97
2023-07-18T09:54:31.486Z,20.03
2023-07-18T09:57:03.210Z,20.08
2023-07-18T09:59:30.896Z,20.15
2023-07-18T10:01:58.058Z,20.21
2023-07-18T10:04:26.627Z,20.26
2023-07-18T10:06:56.805Z,20.33
2023-07-18T10:09:24.590Z,20.40
2023-07-18T10:12:09.668Z,20.46
2023-07-18T10:15:01.564Z,20.52
2023-07-18T10:17:40.741Z,20.60
2023-07-18T10:20:13.172Z,20.66
2023-07-18T10:22:50.349Z,20.71
2023-07-18T10:25:21.047Z,20.78
2023-07-18T10:27:51.008Z,20.83
2023-07-18T10:30:19.438Z,20.89
2023-07-18T10:32:54.445Z,20.94
2023-07-18T10:35:26.334Z,20.99
2023-07-18T10:37:54.654Z,21.03
2023-07-18T10:40:37.651Z,21.11
2023-07-18T10:43:09.701Z,21.15
2023-07-18T10:45:38.832Z,21.20
2023-07-18T10:48:13.155Z,21.26
2023-07-18T10:50:43.686Z,21.29
2023-07-18T10:53:16.032Z,21.34
2023-07-18T10:55:47.054Z,21.40
2023-07-18T10:58:29.385Z,21.47
2023-07-18T11:00:56.376Z,21.51
2023-07-18T11:03:24.743Z,21.55
2023-07-18T11:05:52.654Z,21.57
2023-07-18T11:08:27.224Z,21.61
2023-07-18T11:10:56.247Z,21.63
2023-07-18T11:13:29.674Z,21.66
2023-07-18T11:15:58.098Z,21.69
2023-07-18T11:18:25.020Z,21.74
2023-07-18T11:20:54.200Z,21.82
2023-07-18T11:23:21.512Z,21.88
2023-07-18T11:25:48.665Z,21.91
2023-07-18T11:28:16.776Z,21.96
2023-07-18T11:30:46.260Z,22.01
2023-07-18T11:33:14.515Z,22.05
2023-07-18T11:35:45.732Z,22.12
2023-07-18T11:38:15.469Z,22.17
2023-07-18T11:40:42.254Z,22.20
2023-07-18T11:43:17.623Z,22.25
2023-07-18T11:45:47.608Z,22.30
2023-07-18T11:48:20.438Z,22.36
2023-07-18T11:50:47.435Z,22.39
2023-07-18T11:53:25.158Z,22.43
2023-07-18T11:55:51.878Z,22.48
2023-07-18T11:58:18.691Z,22.52
2023-07-18T12:00:48.563Z,22.55
2023-07-18T12:03:15.490Z,22.57
2023-07-18T12:05:45.356Z,22.60
2023-07-18T12:08:13.321Z,22.66
2023-07-18T12:10:40.549Z,22.72
2023-07-18T12:13:07.420Z,22.75
2023-07-18T12:15:37.092Z,22.79
2023-07-18T12:18:06.538Z,22.82
2023-07-18T12:20:34.303Z,22.86
2023-07-18T12:23:01.039Z,22.86
2023-07-18T12:25:32.804Z,22.87
2023-07-18T12:28:05.078Z,22.90
2023-07-18T12:30:32.279Z,22.96
2023-07-18T12:33:00.088Z,22.99
2023-07-18T12:35:28.659Z,23.05
2023-07-18T12:38:01.580Z,23.10
2023-07-18T12:40:29.682Z,23.14
2023-07-18T12:42:57.761Z,23.17
2023-07-18T12:45:25.838Z,23.18
2023-07-18T12:47:52.680Z,23.22
2023-07-18T12:50:19.625Z,23.26
2023-07-18T12:52:47.995Z,23.29
2023-07-18T12:55:15.061Z,23.31
2023-07-18T12:57:42.215Z,23.34
2023-07-18T13:00:11.341Z,23.35
2023-07-18T13:02:38.164Z,23.37
2023-07-18T13:05:05.702Z,23.40
2023-07-18T13:07:34.137Z,23.46
2023-07-18T13:10:02.346Z,23.50
2023-07-18T13:12:31.213Z,23.52
2023-07-18T13:14:58.708Z,23.49
2023-07-18T13:17:25.643Z,23.47
2023-07-18T13:19:54.561Z,23.45
2023-07-18T13:22:21.549Z,23.45
2023-07-18T13:24:48.693Z,23.48
2023-07-18T13:27:16.985Z,23.52
2023-07-18T13:29:47.229Z,23.53
2023-07-18T13:32:13.961Z,23.59
2023-07-18T13:34:40.885Z,23.63
2023-07-18T13:37:07.616Z,23.63
2023-07-18T13:39:34.462Z,23.66
2023-07-18T13:42:01.535Z,23.69
2023-07-18T13:44:29.782Z,23.71
2023-07-18T13:46:56.881Z,23.75
2023-07-18T13:49:23.958Z,23.68
2023-07-18T13:51:50.911Z,23.72
2023-07-18T13:54:17.700Z,23.76
2023-07-18T13:56:45.439Z,23.79
2023-07-18T13:59:13.351Z,23.83
2023-07-18T14:01:42.789Z,23.87
2023-07-18T14:04:09.615Z,23.89
2023-07-18T14:06:36.346Z,23.92
2023-07-18T14:09:03.603Z,23.93
2023-07-18T14:11:30.946Z,23.93
2023-07-18T14:13:59.642Z,23.95
2023-07-18T14:16:26.481Z,23.98
2023-07-18T14:18:58.366Z,24.01
2023-07-18T14:21:25.820Z,24.04
2023-07-18T14:23:52.948Z,24.07
2023-07-18T14:26:20.007Z,24.09
2023-07-18T14:28:46.865Z,24.11
2023-07-18T14:31:14.628Z,24.13
2023-07-18T14:33:55.329Z,24.15
2023-07-18T14:36:29.808Z,24.15
2023-07-18T14:38:56.695Z,24.17
2023-07-18T14:41:23.497Z,24.19
2023-07-18T14:43:50.169Z,24.23
2023-07-18T14:46:16.956Z,24.26
2023-07-18T14:48:43.703Z,24.29
2023-07-18T14:51:10.502Z,24.29
2023-07-18T14:53:39.346Z,24.29
2023-07-18T14:56:07.293Z,24.32
2023-07-18T14:58:34.190Z,24.35
2023-07-18T15:01:01.006Z,24.36
2023-07-18T15:03:27.972Z,24.39
2023-07-18T15:05:54.802Z,24.39
2023-07-18T15:08:21.669Z,24.39
2023-07-18T15:10:49.843Z,24.42
2023-07-18T15:13:16.977Z,24.42
2023-07-18T15:15:44.139Z,24.43
2023-07-18T15:18:11.484Z,24.42
2023-07-18T15:20:38.329Z,24.37
2023-07-18T15:23:05.203Z,24.32
2023-07-18T15:25:32.327Z,24.29
2023-07-18T15:28:00.878Z,24.27
2023-07-18T15:30:28.634Z,24.28
2023-07-18T15:32:55.405Z,24.29
2023-07-18T15:35:23.001Z,24.31
2023-07-18T15:37:49.799Z,24.32
2023-07-18T15:40:16.516Z,24.33
2023-07-18T15:42:43.180Z,24.35
2023-07-18T15:45:11.882Z,24.37
2023-07-18T15:47:39.474Z,24.39
2023-07-18T15:50:07.617Z,24.38
2023-07-18T15:52:34.339Z,24.40
2023-07-18T15:55:01.628Z,24.40
2023-07-18T15:57:29.682Z,24.37
2023-07-18T15:59:56.370Z,24.34
2023-07-18T16:02:24.742Z,24.30
2023-07-18T16:04:51.545Z,24.26
2023-07-18T16:07:18.424Z,24.24
2023-07-18T16:09:49.593Z,24.25
2023-07-18T16:12:16.377Z,24.24
2023-07-18T16:14:43.419Z,24.24
2023-07-18T16:17:11.207Z,24.21
2023-07-18T16:19:39.765Z,24.20
2023-07-18T16:22:06.779Z,24.18
2023-07-18T16:24:33.566Z,24.23
2023-07-18T16:27:02.731Z,24.24
2023-07-18T16:29:29.458Z,24.26
2023-07-18T16:31:59.266Z,24.28
2023-07-18T16:34:26.004Z,24.30
2023-07-18T16:36:56.393Z,24.31
2023-07-18T16:39:23.075Z,24.30
2023-07-18T16:41:49.842Z,24.31
2023-07-18T16:44:18.646Z,24.32
2023-07-18T16:46:47.324Z,24.31
2023-07-18T16:49:14.142Z,24.31
2023-07-18T16:51:41.060Z,24.31
2023-07-18T16:54:09.238Z,24.30
2023-07-18T16:56:36.859Z,24.33
2023-07-18T16:59:03.663Z,24.34
2023-07-18T17:01:32.516Z,24.34
2023-07-18T17:04:00.807Z,24.35
2023-07-18T17:06:27.681Z,24.36
2023-07-18T17:08:54.729Z,24.33
2023-07-18T17:11:23.012Z,24.29
2023-07-18T17:13:52.448Z,24.26
2023-07-18T17:16:20.226Z,24.24
2023-07-18T17:18:47.663Z,24.18
2023-07-18T17:21:14.450Z,24.16
2023-07-18T17:23:41.185Z,24.16
2023-07-18T17:26:10.205Z,24.17
2023-07-18T17:28:38.283Z,24.18
2023-07-18T17:31:05.203Z,24.17
2023-07-18T17:33:31.980Z,24.15
2023-07-18T17:35:58.686Z,24.15
2023-07-18T17:38:25.665Z,24.13
2023-07-18T17:40:52.635Z,24.12
2023-07-18T17:43:19.388Z,24.10
2023-07-18T17:45:47.695Z,24.09
2023-07-18T17:48:14.652Z,24.08
2023-07-18T17:50:41.488Z,24.08
2023-07-18T17:53:08.211Z,24.05
2023-07-18T17:55:35.074Z,24.05
2023-07-18T17:58:01.895Z,24.02
2023-07-18T18:00:30.226Z,23.99
2023-07-18T18:02:58.689Z,23.97
2023-07-18T18:05:36.342Z,23.95
2023-07-18T18:08:06.323Z,23.95
2023-07-18T18:10:33.171Z,23.93
2023-07-18T18:12:59.930Z,23.89
2023-07-18T18:15:28.143Z,23.87
2023-07-18T18:17:55.067Z,23.85
2023-07-18T18:20:23.296Z,23.84
2023-07-18T18:22:50.198Z,23.81
2023-07-18T18:25:17.388Z,23.79
2023-07-18T18:27:45.039Z,23.77
2023-07-18T18:30:13.042Z,23.75
2023-07-18T18:32:39.960Z,23.72
2023-07-18T18:35:09.822Z,23.69
2023-07-18T18:37:39.432Z,23.67
2023-07-18T18:40:07.171Z,23.65
2023-07-18T18:42:34.804Z,23.63
2023-07-18T18:45:01.847Z,23.62
2023-07-18T18:47:28.607Z,23.59
2023-07-18T18:49:57.816Z,23.58
2023-07-18T18:52:26.084Z,23.54
2023-07-18T18:55:08.693Z,23.50
2023-07-18T18:57:40.046Z,23.49
2023-07-18T19:00:09.078Z,23.44
2023-07-18T19:02:36.428Z,23.45
2023-07-18T19:05:05.623Z,23.43
2023-07-18T19:07:34.539Z,23.42
2023-07-18T19:10:03.930Z,23.35
2023-07-18T19:12:30.753Z,23.28
2023-07-18T19:14:58.394Z,23.20
2023-07-18T19:17:25.884Z,23.06
2023-07-18T19:19:53.007Z,22.95
2023-07-18T19:22:20.595Z,22.89
2023-07-18T19:24:51.038Z,22.85
2023-07-18T19:27:19.697Z,22.79
2023-07-18T19:29:46.653Z,22.75
2023-07-18T19:32:13.426Z,22.71
2023-07-18T19:34:42.676Z,22.64
2023-07-18T19:37:09.405Z,22.60
2023-07-18T19:39:37.886Z,22.56
2023-07-18T19:42:05.477Z,22.52
2023-07-18T19:44:33.876Z,22.43
2023-07-18T19:47:02.032Z,22.36
2023-07-18T19:49:32.033Z,22.29
2023-07-18T19:51:59.150Z,22.25
2023-07-18T19:54:26.432Z,22.19
2023-07-18T19:56:54.341Z,22.20
2023-07-18T19:59:21.920Z,22.16
2023-07-18T20:01:52.236Z,22.13
2023-07-18T20:04:19.379Z,22.09
2023-07-18T20:06:46.141Z,22.07
2023-07-18T20:09:12.893Z,22.03
2023-07-18T20:11:39.794Z,21.98
2023-07-18T20:14:06.500Z,21.96
2023-07-18T20:16:33.300Z,21.92
2023-07-18T20:19:03.106Z,21.88
2023-07-18T20:21:30.414Z,21.83
2023-07-18T20:23:58.243Z,21.76
2023-07-18T20:26:25.587Z,21.72
2023-07-18T20:28:53.725Z,21.69
2023-07-18T20:31:20.883Z,21.67
2023-07-18T20:33:48.479Z,21.67
2023-07-18T20:36:16.760Z,21.65
2023-07-18T20:38:47.257Z,21.64
2023-07-18T20:41:14.258Z,21.66
2023-07-18T20:43:41.794Z,21.68
2023-07-18T20:46:12.385Z,21.68
2023-07-18T20:48:39.322Z,21.67
2023-07-18T20:51:07.279Z,21.65
2023-07-18T20:53:35.717Z,21.64
2023-07-18T20:56:02.763Z,21.64
2023-07-18T20:58:29.762Z,21.64
2023-07-18T21:00:56.485Z,21.61
2023-07-18T21:03:25.130Z,21.59
2023-07-18T21:05:52.388Z,21.59
2023-07-18T21:08:19.566Z,21.57
2023-07-18T21:10:49.246Z,21.55
2023-07-18T21:13:16.250Z,21.55
2023-07-18T21:15:43.234Z,21.57
2023-07-18T21:18:10.377Z,21.56
2023-07-18T21:20:38.463Z,21.55
2023-07-18T21:23:05.391Z,21.53
2023-07-18T21:25:32.677Z,21.54
2023-07-18T21:28:00.734Z,21.50
2023-07-18T21:30:27.888Z,21.49
2023-07-18T21:32:54.975Z,21.47
2023-07-18T21:35:25.061Z,21.45
2023-07-18T21:37:52.019Z,21.46
2023-07-18T21:40:19.187Z,21.47
2023-07-18T21:42:49.455Z,21.43
2023-07-18T21:45:17.930Z,21.40
2023-07-18T21:47:45.788Z,21.39
2023-07-18T21:50:12.764Z,21.35
2023-07-18T21:52:39.641Z,21.32
2023-07-18T21:55:07.634Z,21.28
2023-07-18T21:57:34.305Z,21.24
2023-07-18T22:00:01.163Z,21.21
2023-07-18T22:02:37.008Z,21.18
2023-07-18T22:05:04.551Z,21.15
2023-07-18T22:07:31.788Z,21.12
2023-07-18T22:09:59.382Z,21.07
2023-07-18T22:12:26.104Z,21.04
2023-07-18T22:14:57.128Z,21.02
2023-07-18T22:17:23.872Z,20.97
2023-07-18T22:19:51.895Z,20.94
2023-07-18T22:22:18.731Z,20.90
2023-07-18T22:24:45.489Z,20.87
2023-07-18T22:27:12.208Z,20.86
2023-07-18T22:29:39.156Z,20.84
2023-07-18T22:32:07.355Z,20.84
2023-07-18T22:34:34.900Z,20.84
2023-07-18T22:37:03.225Z,20.85
2023-07-18T22:39:36.487Z,20.86
2023-07-18T22:42:15.339Z,20.85
2023-07-18T22:44:42.647Z,20.84
2023-07-18T22:47:10.162Z,20.83
2023-07-18T22:49:37.212Z,20.84
2023-07-18T22:52:06.719Z,20.83
2023-07-18T22:54:34.695Z,20.79
2023-07-18T22:57:01.836Z,20.76
2023-07-18T22:59:28.662Z,20.71
2023-07-18T23:01:55.402Z,20.68
2023-07-18T23:04:23.704Z,20.62
2023-07-18T23:06:50.372Z,20.58
2023-07-18T23:09:19.695Z,20.52
2023-07-18T23:11:46.808Z,20.48
2023-07-18T23:14:13.706Z,20.44
2023-07-18T23:16:41.773Z,20.42
2023-07-18T23:19:08.526Z,20.38
2023-07-18T23:21:35.628Z,20.33
2023-07-18T23:24:02.710Z,20.28
2023-07-18T23:26:30.913Z,20.25
2023-07-18T23:28:58.042Z,20.20
2023-07-18T23:31:24.998Z,20.15
2023-07-18T23:33:51.952Z,20.11
2023-07-18T23:36:18.669Z,20.05
2023-07-18T23:38:46.525Z,20.00
2023-07-18T23:41:13.404Z,19.94
2023-07-18T23:43:41.444Z,19.90
2023-07-18T23:46:08.374Z,19.86
2023-07-18T23:48:35.998Z,19.81
2023-07-18T23:51:03.221Z,19.78
2023-07-18T23:53:29.901Z,19.75
2023-07-18T23:55:56.792Z,19.74
2023-07-18T23:58:23.732Z,19.71
